KEAU/EAU METAR and TAF weather

Enter ICAO airport designator
Station Type Date Time Source
KEAU METAR 2020/09/22 07:56 UTC NOAA

KEAU 220756Z AUTO 18004KT 10SM CLR 16/12 A3011 RMK AO2 SLP194 T01610122


Station Type Date Time Source
KEAU Decoded METAR 2020/09/22 07:56 UTC NOAA

EAU CLAIRE CHIPPEWA VALLEY, WI, United States (KEAU) 44-52N 091-29W
Sep 22, 2020 - 03:56 AM EDT / 2020.09.22 0756 UTC
Wind: from the S (180 degrees) at 5 MPH (4 KT):0
Visibility: 10 mile(s):0
Sky conditions: clear
Temperature: 61.0 F (16.1 C)
Dew Point: 54.0 F (12.2 C)
Relative Humidity: 77%
Pressure (altimeter): 30.11 in. Hg (1019 hPa)
ob: KEAU 220756Z AUTO 18004KT 10SM CLR 16/12 A3011 RMK AO2 SLP194 T01610122
cycle: 8

Station Type Date Time Source
KEAU TAF 2020/09/22 06:22 UTC NOAA

TAF KEAU 220520Z 2206/2306 17007KT P6SM SKC
FM221200 VRB03KT P6SM SKC

Example: see airport list